Susquehanna — WDD9976 — position and weather

sailwx.info

Track history (hours):
 
Tides and Currents Weather Stations Pressure Air Temp Water Temp Dewpoint Dewpoint Depression Visibility Wind Speed Wind Dir Waves Ship Positions

Susquehanna

Owner: Vane Line Bunkering, Inc., Baltimore, MD. More information available from US FCC via Universal Licensing System and Coast Guard Vessel Documentation Center.

Last reported at 2016-Jun-24 11:30 UTC. Time now 2016-Jul-01 15:21 UTC.
Position N 31°29' W 079°43'.

Length 28 m; draft 4.2 m.

Type: Tug. MMSI: 367318750.

Date/timePositionNaut miles runAvg speedWind from/ knotsBaromVisibWave heightAir tempDewpointWater temp
2016-Jun-24 11:30N 31°29' W 079°43'268 9.6
2016-Jun-23 07:34N 27°01' W 080°01'27 8.1
2016-Jun-23 04:16N 26°35' W 079°59'7 9.4
2016-Jun-23 03:33N 26°28' W 079°59'9 9.0
2016-Jun-23 02:33N 26°19' W 079°60'9 8.9
2016-Jun-23 01:33N 26°10' W 080°01'7 7.3
2016-Jun-23 00:33N 26°03' W 080°02'8 7.9
2016-Jun-22 23:33N 25°55' W 080°00'9 8.9
2016-Jun-22 22:33N 25°46' W 079°59'  
2016-Jun-18 04:22N 29°11' W 094°31'20 7.0
2016-Jun-18 01:33N 29°23' W 094°49'11 9.1
2016-Jun-18 00:23N 29°33' W 094°54'7 8.4
2016-Jun-17 23:33N 29°39' W 094°58'7 7.2
2016-Jun-17 22:34N 29°44' W 095°04'7 0.7
2016-Jun-17 11:08N 29°45' W 095°12'0 0.0
2016-Jun-17 09:27N 29°45' W 095°12'0 0.0
2016-Jun-17 07:06N 29°45' W 095°12'0 0.0
2016-Jun-17 04:04N 29°45' W 095°12'0 0.0
2016-Jun-17 02:05N 29°45' W 095°12'0 0.0
2016-Jun-17 01:25N 29°45' W 095°12'3 1.0
2016-Jun-16 22:30N 29°44' W 095°09'6 6.5
2016-Jun-16 21:32N 29°44' W 095°02'9 8.9
2016-Jun-16 20:33N 29°36' W 094°57'9 9.5
2016-Jun-16 19:34N 29°28' W 094°51'  
2016-Jun-14 14:28N 29°32' W 094°54'9 9.7
2016-Jun-14 13:33N 29°40' W 094°58'8 8.5
2016-Jun-14 12:33N 29°46' W 095°05'  
Track history (hours):
 
Tides and Currents Weather Stations Pressure Air Temp Water Temp Dewpoint Dewpoint Depression Visibility Wind Speed Wind Dir Waves Ship Positions

Susquehanna

Owner: Vane Line Bunkering, Inc., Baltimore, MD. More information available from US FCC via Universal Licensing System and Coast Guard Vessel Documentation Center.

Last reported at 2016-Jun-24 11:30 UTC. Time now 2016-Jul-01 15:21 UTC.
Position N 31°29' W 079°43'.

Length 28 m; draft 4.2 m.

Type: Tug. MMSI: 367318750.

Date/timePositionNaut miles runAvg speedWind from/ knotsBaromVisibWave heightAir tempDewpointWater temp
2016-Jun-24 11:30N 31°29' W 079°43'268 9.6
2016-Jun-23 07:34N 27°01' W 080°01'27 8.1
2016-Jun-23 04:16N 26°35' W 079°59'7 9.4
2016-Jun-23 03:33N 26°28' W 079°59'9 9.0
2016-Jun-23 02:33N 26°19' W 079°60'9 8.9
2016-Jun-23 01:33N 26°10' W 080°01'7 7.3
2016-Jun-23 00:33N 26°03' W 080°02'8 7.9
2016-Jun-22 23:33N 25°55' W 080°00'9 8.9
2016-Jun-22 22:33N 25°46' W 079°59'  
2016-Jun-18 04:22N 29°11' W 094°31'20 7.0
2016-Jun-18 01:33N 29°23' W 094°49'11 9.1
2016-Jun-18 00:23N 29°33' W 094°54'7 8.4
2016-Jun-17 23:33N 29°39' W 094°58'7 7.2
2016-Jun-17 22:34N 29°44' W 095°04'7 0.7
2016-Jun-17 11:08N 29°45' W 095°12'0 0.0
2016-Jun-17 09:27N 29°45' W 095°12'0 0.0
2016-Jun-17 07:06N 29°45' W 095°12'0 0.0
2016-Jun-17 04:04N 29°45' W 095°12'0 0.0
2016-Jun-17 02:05N 29°45' W 095°12'0 0.0
2016-Jun-17 01:25N 29°45' W 095°12'3 1.0
2016-Jun-16 22:30N 29°44' W 095°09'6 6.5
2016-Jun-16 21:32N 29°44' W 095°02'9 8.9
2016-Jun-16 20:33N 29°36' W 094°57'9 9.5
2016-Jun-16 19:34N 29°28' W 094°51'  
2016-Jun-14 14:28N 29°32' W 094°54'9 9.7
2016-Jun-14 13:33N 29°40' W 094°58'8 8.5
2016-Jun-14 12:33N 29°46' W 095°05'  

Dump ship's entire track history